Time;durP1;ratioP1;P1;durP2;ratioP2;P2;SDS_P1;SDS_P2;PMS_P1;PMS_P2;Temp;Humidity;BMP_temperature;BMP_pressure;BME280_temperature;BME280_humidity;BME280_pressure;Samples;Min_cycle;Max_cycle;Signal;HPM_P1;HPM_P2
2022/01/27 00:05:08;;;;;;;94.60;41.10;;;4.30;99.90;;;;;;5074264;28;20197;-79
2022/01/27 00:07:34;;;;;;;92.73;40.80;;;4.30;99.90;;;;;;5055852;28;20189;-83
2022/01/27 00:10:27;;;;;;;92.07;39.80;;;4.30;99.90;;;;;;5058412;28;20170;-76
2022/01/27 00:12:55;;;;;;;86.80;38.57;;;4.40;99.90;;;;;;5022789;28;20269;-79
2022/01/27 00:15:32;;;;;;;88.00;39.97;;;4.30;99.90;;;;;;5038642;28;20201;-79
2022/01/27 00:18:02;;;;;;;89.90;39.57;;;4.30;99.90;;;;;;5035967;28;20252;-79
2022/01/27 00:20:28;;;;;;;95.47;42.20;;;4.30;99.90;;;;;;5043665;28;20579;-79
2022/01/27 00:22:54;;;;;;;95.60;41.37;;;4.40;99.90;;;;;;5043944;28;20209;-79
2022/01/27 00:25:20;;;;;;;95.10;40.50;;;4.40;99.90;;;;;;5033084;28;20201;-78
2022/01/27 00:27:48;;;;;;;85.87;40.37;;;4.40;99.90;;;;;;5020369;28;20549;-77
2022/01/27 00:30:13;;;;;;;91.40;40.93;;;4.40;99.90;;;;;;5037066;28;20643;-78
2022/01/27 00:32:40;;;;;;;92.63;41.07;;;4.40;99.90;;;;;;5036214;28;20173;-79
2022/01/27 00:35:24;;;;;;;95.03;40.83;;;4.40;99.90;;;;;;5020653;28;20305;-78
2022/01/27 00:37:56;;;;;;;93.40;40.87;;;4.30;99.90;;;;;;5019763;28;20173;-78
2022/01/27 00:40:22;;;;;;;94.20;41.43;;;4.40;99.90;;;;;;5020865;28;20177;-78
2022/01/27 00:42:48;;;;;;;97.60;42.40;;;4.40;99.90;;;;;;5020833;28;20204;-78
2022/01/27 00:45:13;;;;;;;91.87;42.27;;;4.40;99.90;;;;;;5033260;28;20284;-78
2022/01/27 00:47:39;;;;;;;92.97;42.80;;;4.40;99.90;;;;;;5035366;28;20189;-78
2022/01/27 00:50:11;;;;;;;93.27;41.97;;;4.40;99.90;;;;;;5019714;28;20212;-78
2022/01/27 00:52:48;;;;;;;100.43;44.77;;;4.40;99.90;;;;;;5036237;28;20181;-78
2022/01/27 00:55:16;;;;;;;99.87;43.80;;;4.30;99.90;;;;;;5052024;28;20212;-78
2022/01/27 01:00:27;;;;;;;97.87;42.80;;;4.40;99.90;;;;;;5032512;28;20216;-78
2022/01/27 01:05:51;;;;;;;94.20;43.20;;;4.30;99.90;;;;;;5051931;28;20205;-78
2022/01/27 01:09:09;;;;;;;101.73;44.67;;;4.40;99.90;;;;;;5035072;28;20636;-78
2022/01/27 01:14:31;;;;;;;94.03;43.17;;;4.30;99.90;;;;;;5052217;28;20170;-79
2022/01/27 01:33:10;;;;;;;84.87;42.70;;;4.30;99.90;;;;;;5052113;28;20227;-78
2022/01/27 01:35:50;;;;;;;94.37;45.10;;;4.20;99.90;;;;;;5054632;28;20197;-81
2022/01/27 01:38:19;;;;;;;102.30;46.07;;;4.30;99.90;;;;;;5057127;28;20184;-81
2022/01/27 01:41:07;;;;;;;94.77;46.17;;;4.20;99.90;;;;;;5037860;28;20545;-85
2022/01/27 01:43:33;;;;;;;88.27;44.50;;;4.30;99.90;;;;;;5036975;28;20247;-85
2022/01/27 01:45:59;;;;;;;92.07;46.20;;;4.30;99.90;;;;;;5036845;28;20204;-84
2022/01/27 01:48:25;;;;;;;90.57;44.63;;;4.30;99.90;;;;;;5054307;28;20185;-84
2022/01/27 01:50:51;;;;;;;91.20;44.33;;;4.30;99.90;;;;;;5038294;28;20173;-85
2022/01/27 01:53:16;;;;;;;89.23;44.60;;;4.30;99.90;;;;;;5037832;28;20173;-85
2022/01/27 01:55:42;;;;;;;95.10;46.63;;;4.30;99.90;;;;;;5040869;28;20205;-83
2022/01/27 01:58:12;;;;;;;93.00;45.23;;;4.30;99.90;;;;;;5020620;28;20215;-84
2022/01/27 02:00:38;;;;;;;83.47;41.37;;;4.30;99.90;;;;;;5028305;28;20235;-83
2022/01/27 02:03:04;;;;;;;82.27;41.47;;;4.40;99.90;;;;;;5030032;28;20189;-84
2022/01/27 02:05:39;;;;;;;80.73;43.00;;;4.40;99.90;;;;;;5025234;28;20202;-83
2022/01/27 02:08:44;;;;;;;76.80;40.77;;;4.50;99.90;;;;;;5028158;28;20177;-83
2022/01/27 02:19:36;;;;;;;65.80;35.47;;;4.60;99.90;;;;;;5052547;28;20201;-83
2022/01/27 02:22:09;;;;;;;70.90;36.67;;;4.70;99.90;;;;;;5057078;28;20224;-84
2022/01/27 02:24:36;;;;;;;61.87;34.10;;;4.70;99.90;;;;;;5035563;28;20193;-82
2022/01/27 02:27:03;;;;;;;55.57;32.03;;;4.70;99.90;;;;;;5035138;28;20184;-83
2022/01/27 02:29:30;;;;;;;61.47;32.37;;;4.70;99.90;;;;;;5051449;28;20263;-83
2022/01/27 02:31:58;;;;;;;57.63;31.83;;;4.70;99.90;;;;;;5041782;28;20288;-83
2022/01/27 02:34:25;;;;;;;53.63;30.57;;;4.70;99.90;;;;;;5042659;28;20270;-83
2022/01/27 02:37:00;;;;;;;54.33;30.33;;;4.80;99.90;;;;;;5026315;28;20174;-84
2022/01/27 02:39:26;;;;;;;53.50;29.60;;;4.80;99.90;;;;;;5057492;28;20268;-82
2022/01/27 02:42:04;;;;;;;53.13;28.93;;;4.80;99.90;;;;;;5028438;28;20224;-82
2022/01/27 02:44:31;;;;;;;49.23;29.30;;;4.90;99.90;;;;;;5042032;28;20230;-84
2022/01/27 02:46:57;;;;;;;49.17;27.80;;;4.90;99.90;;;;;;5034179;28;20198;-84
2022/01/27 02:49:23;;;;;;;48.73;27.50;;;4.90;99.90;;;;;;5034844;28;20179;-84
2022/01/27 02:51:49;;;;;;;46.40;27.70;;;4.90;99.90;;;;;;5038582;28;20181;-83
2022/01/27 02:54:14;;;;;;;50.73;29.73;;;4.90;99.90;;;;;;5042161;28;20184;-83
2022/01/27 02:56:44;;;;;;;62.90;33.37;;;4.90;99.90;;;;;;5032154;28;20181;-83
2022/01/27 02:59:14;;;;;;;48.87;28.20;;;5.00;99.90;;;;;;5041671;28;20167;-83
2022/01/27 03:01:40;;;;;;;50.30;29.23;;;5.00;99.90;;;;;;5027700;28;20206;-83
2022/01/27 03:04:06;;;;;;;47.50;27.33;;;5.00;99.90;;;;;;5025958;28;20182;-83
2022/01/27 03:06:33;;;;;;;49.07;27.33;;;5.00;99.90;;;;;;5026409;28;20182;-82
2022/01/27 03:08:59;;;;;;;52.23;28.57;;;5.00;99.90;;;;;;5063538;28;20173;-82
2022/01/27 03:11:45;;;;;;;50.87;27.13;;;5.00;99.90;;;;;;5051455;28;20173;-81
2022/01/27 03:14:16;;;;;;;45.63;26.33;;;5.00;99.90;;;;;;5049019;28;20950;-83
2022/01/27 03:16:43;;;;;;;45.33;26.43;;;5.00;99.90;;;;;;5048537;28;20277;-82
2022/01/27 03:19:10;;;;;;;45.33;26.20;;;5.00;99.90;;;;;;5055294;28;20200;-82
2022/01/27 03:21:37;;;;;;;44.67;26.77;;;5.00;99.90;;;;;;5042424;28;20660;-83
2022/01/27 03:24:03;;;;;;;47.53;28.13;;;5.00;99.90;;;;;;5039373;28;20335;-83
2022/01/27 03:26:29;;;;;;;47.43;27.40;;;5.00;99.90;;;;;;5023227;28;20181;-82
2022/01/27 03:28:56;;;;;;;47.33;27.07;;;5.00;99.90;;;;;;5053374;28;20189;-85
2022/01/27 03:31:22;;;;;;;49.17;26.33;;;5.00;99.90;;;;;;5049126;28;20183;-85
2022/01/27 03:33:48;;;;;;;49.83;27.63;;;5.00;99.90;;;;;;5030854;28;20248;-84
2022/01/27 03:36:15;;;;;;;49.20;27.13;;;5.00;99.90;;;;;;5054725;28;20255;-84
2022/01/27 03:38:41;;;;;;;48.23;27.00;;;5.00;99.90;;;;;;5045454;28;20182;-82
2022/01/27 03:41:08;;;;;;;45.47;28.30;;;5.00;99.90;;;;;;5043475;28;20183;-83
2022/01/27 03:43:37;;;;;;;47.97;28.27;;;5.10;99.90;;;;;;5044356;28;20183;-84
2022/01/27 03:46:04;;;;;;;50.53;27.13;;;5.10;99.90;;;;;;5060725;28;20296;-82
2022/01/27 03:48:29;;;;;;;45.37;27.67;;;5.00;99.90;;;;;;5034163;28;20189;-83
2022/01/27 03:50:55;;;;;;;47.53;28.10;;;5.00;99.90;;;;;;5044738;28;20174;-83
2022/01/27 03:53:21;;;;;;;51.53;28.37;;;5.00;99.90;;;;;;5061521;28;20184;-83
2022/01/27 03:55:47;;;;;;;51.83;27.10;;;5.00;99.90;;;;;;5052594;28;20261;-82
2022/01/27 03:58:13;;;;;;;43.57;26.80;;;5.00;99.90;;;;;;5055308;28;20174;-82
2022/01/27 04:00:39;;;;;;;54.07;29.33;;;4.90;99.90;;;;;;5055866;28;20180;-83
2022/01/27 04:03:11;;;;;;;51.43;29.67;;;4.80;99.90;;;;;;5060263;28;20203;-82
2022/01/27 04:05:41;;;;;;;52.13;29.43;;;4.70;99.90;;;;;;5059451;28;20637;-83
2022/01/27 04:08:09;;;;;;;49.80;28.63;;;4.60;99.90;;;;;;5064123;28;20170;-82
2022/01/27 04:10:36;;;;;;;53.20;29.77;;;4.60;99.90;;;;;;5053996;28;20171;-82
2022/01/27 04:13:03;;;;;;;52.57;30.20;;;4.50;99.90;;;;;;5046032;28;20193;-82
2022/01/27 04:15:29;;;;;;;57.57;33.00;;;4.40;99.90;;;;;;5039078;28;20209;-82
2022/01/27 04:17:55;;;;;;;62.00;34.23;;;4.40;99.90;;;;;;5041936;28;20174;-83
2022/01/27 04:20:21;;;;;;;65.63;35.13;;;4.30;99.90;;;;;;5043931;28;20518;-83
2022/01/27 04:22:46;;;;;;;64.23;34.23;;;4.30;99.90;;;;;;5017677;28;20243;-83
2022/01/27 04:25:13;;;;;;;65.23;34.67;;;4.20;99.90;;;;;;5023496;28;20190;-83
2022/01/27 04:27:43;;;;;;;62.63;35.63;;;4.20;99.90;;;;;;5038948;28;20203;-83
2022/01/27 04:30:16;;;;;;;64.40;34.07;;;4.20;99.90;;;;;;5035819;28;20174;-82
2022/01/27 04:32:51;;;;;;;65.37;35.00;;;4.10;99.90;;;;;;5057496;28;20219;-82
2022/01/27 04:35:20;;;;;;;65.60;35.13;;;4.10;99.90;;;;;;5053398;28;20189;-82
2022/01/27 04:37:59;;;;;;;66.67;35.67;;;4.10;99.90;;;;;;5046340;28;20174;-82
2022/01/27 04:40:49;;;;;;;68.33;36.53;;;4.10;99.90;;;;;;5057891;28;20591;-82
2022/01/27 04:46:21;;;;;;;74.10;36.43;;;4.10;99.90;;;;;;5048494;28;20239;-83
2022/01/27 04:48:52;;;;;;;73.27;36.67;;;4.10;99.90;;;;;;5038932;28;20253;-84
2022/01/27 04:51:28;;;;;;;70.80;37.93;;;4.00;99.90;;;;;;5051396;28;20211;-85
2022/01/27 04:54:13;;;;;;;71.17;37.87;;;4.10;99.90;;;;;;5035672;28;20189;-83
2022/01/27 04:56:42;;;;;;;71.90;36.33;;;4.10;99.90;;;;;;5021879;28;20178;-84
2022/01/27 04:59:18;;;;;;;72.40;39.13;;;4.10;99.90;;;;;;5032139;28;20197;-84
2022/01/27 05:01:53;;;;;;;65.40;36.03;;;4.10;99.90;;;;;;5032525;28;20209;-83
2022/01/27 05:04:21;;;;;;;74.07;37.23;;;4.00;99.90;;;;;;5053008;28;20284;-83
2022/01/27 05:06:51;;;;;;;69.73;36.57;;;4.10;99.90;;;;;;5053404;28;20204;-84
2022/01/27 05:09:17;;;;;;;72.13;35.80;;;4.00;99.90;;;;;;5054110;28;20268;-84
2022/01/27 05:11:59;;;;;;;65.20;35.87;;;4.10;99.90;;;;;;5054690;28;20180;-85
2022/01/27 05:14:28;;;;;;;60.63;34.57;;;4.00;99.90;;;;;;5053424;28;20196;-85
2022/01/27 05:16:54;;;;;;;70.53;35.93;;;4.00;99.90;;;;;;5033045;28;20184;-84
2022/01/27 05:19:20;;;;;;;67.37;37.13;;;4.00;99.90;;;;;;5026582;28;20583;-83
2022/01/27 05:21:46;;;;;;;71.03;37.80;;;4.00;99.90;;;;;;5044528;28;20198;-83
2022/01/27 05:24:12;;;;;;;70.53;37.40;;;4.00;99.90;;;;;;5043275;28;20215;-83
2022/01/27 05:26:38;;;;;;;68.33;35.80;;;4.00;99.90;;;;;;5065792;28;20603;-83
2022/01/27 05:29:05;;;;;;;64.73;36.30;;;3.90;99.90;;;;;;5030921;28;20291;-83
2022/01/27 05:31:31;;;;;;;67.53;36.47;;;3.90;99.90;;;;;;5051743;28;20181;-83
2022/01/27 05:33:57;;;;;;;67.93;35.80;;;4.00;99.90;;;;;;5025367;28;20236;-85
2022/01/27 05:36:23;;;;;;;65.47;36.13;;;4.00;99.90;;;;;;5026620;28;20267;-85
2022/01/27 05:38:48;;;;;;;62.13;34.40;;;4.00;99.90;;;;;;5035832;28;20180;-83
2022/01/27 05:41:15;;;;;;;69.07;34.70;;;4.00;99.90;;;;;;5024580;28;20205;-83
2022/01/27 05:43:42;;;;;;;64.07;35.30;;;4.00;99.90;;;;;;5039924;28;20178;-83
2022/01/27 05:46:08;;;;;;;63.37;35.13;;;4.00;99.90;;;;;;5040536;28;20251;-84
2022/01/27 05:48:34;;;;;;;60.97;33.27;;;4.00;99.90;;;;;;5039443;28;20185;-84
2022/01/27 05:51:00;;;;;;;64.00;34.50;;;4.00;99.90;;;;;;5044125;28;20174;-83
2022/01/27 05:53:30;;;;;;;60.60;32.53;;;4.00;99.90;;;;;;5038358;28;20200;-84
2022/01/27 05:55:56;;;;;;;62.47;33.60;;;4.00;99.90;;;;;;5037734;28;20198;-83
2022/01/27 05:58:25;;;;;;;59.93;33.93;;;4.00;99.90;;;;;;5044006;28;20201;-82
2022/01/27 06:00:52;;;;;;;55.20;31.77;;;4.00;99.90;;;;;;5008396;28;20194;-83
2022/01/27 06:03:18;;;;;;;54.87;29.87;;;4.00;99.90;;;;;;5025155;28;20217;-84
2022/01/27 06:05:46;;;;;;;56.47;31.13;;;4.00;99.90;;;;;;5024964;28;20277;-83
2022/01/27 06:08:11;;;;;;;51.80;29.63;;;4.00;99.90;;;;;;5041658;28;20174;-82
2022/01/27 06:10:37;;;;;;;56.40;31.27;;;4.00;99.90;;;;;;5017627;28;20169;-83
2022/01/27 06:13:03;;;;;;;53.70;31.07;;;4.00;99.90;;;;;;5044104;28;20185;-83
2022/01/27 06:15:29;;;;;;;51.23;28.77;;;4.00;99.90;;;;;;5044322;28;20193;-83
2022/01/27 06:17:56;;;;;;;54.80;32.13;;;4.00;99.90;;;;;;5043912;28;20211;-83
2022/01/27 06:20:22;;;;;;;53.93;29.87;;;4.10;99.90;;;;;;5044849;28;20178;-84
2022/01/27 06:22:48;;;;;;;53.70;31.73;;;4.10;99.90;;;;;;5031912;28;20601;-83
2022/01/27 06:25:15;;;;;;;48.43;28.23;;;4.00;99.90;;;;;;5025350;28;20654;-82
2022/01/27 06:27:41;;;;;;;49.90;28.40;;;4.10;99.90;;;;;;5020407;28;20170;-82
2022/01/27 06:30:10;;;;;;;49.87;29.60;;;4.10;99.90;;;;;;5044470;28;20176;-82
2022/01/27 06:32:37;;;;;;;52.53;29.63;;;4.10;99.90;;;;;;5056085;28;20235;-83
2022/01/27 06:35:03;;;;;;;54.87;31.53;;;4.10;99.90;;;;;;5044907;28;20232;-83
2022/01/27 06:37:34;;;;;;;52.23;28.67;;;4.10;99.90;;;;;;5061467;28;20209;-83
2022/01/27 06:40:04;;;;;;;51.73;29.33;;;4.10;99.90;;;;;;5055057;28;20177;-83
2022/01/27 06:42:34;;;;;;;50.97;29.87;;;4.10;99.90;;;;;;5055851;28;20223;-83
2022/01/27 06:45:00;;;;;;;52.40;29.93;;;4.10;99.90;;;;;;5034271;28;20259;-83
2022/01/27 06:47:25;;;;;;;51.90;29.80;;;4.00;99.90;;;;;;5027237;28;20214;-85
2022/01/27 06:49:51;;;;;;;54.07;29.87;;;4.10;99.90;;;;;;5039639;28;20177;-87
2022/01/27 06:52:19;;;;;;;50.47;29.53;;;4.10;99.90;;;;;;5058533;28;20195;-85
2022/01/27 06:54:50;;;;;;;49.97;28.90;;;4.10;99.90;;;;;;5045392;28;20201;-87
2022/01/27 06:57:16;;;;;;;45.43;26.10;;;4.10;99.90;;;;;;5058700;28;20172;-86
2022/01/27 06:59:44;;;;;;;51.63;29.47;;;4.10;99.90;;;;;;5058342;28;20169;-85
2022/01/27 07:02:10;;;;;;;47.87;28.13;;;4.10;99.90;;;;;;5058036;28;20216;-84
2022/01/27 07:04:41;;;;;;;47.13;28.00;;;4.10;99.90;;;;;;5059354;28;20193;-86
2022/01/27 07:07:09;;;;;;;46.33;28.03;;;4.10;99.90;;;;;;5062198;28;20149;-84
2022/01/27 07:09:39;;;;;;;46.93;27.43;;;4.20;99.90;;;;;;5061408;28;20177;-84
2022/01/27 07:12:06;;;;;;;46.37;28.43;;;4.10;99.90;;;;;;5059296;28;20173;-82
2022/01/27 07:14:34;;;;;;;48.70;28.70;;;4.10;99.90;;;;;;5049869;28;20209;-87
2022/01/27 07:17:04;;;;;;;48.57;27.27;;;4.20;99.90;;;;;;5040214;28;20178;-84
2022/01/27 07:19:34;;;;;;;46.77;27.00;;;4.10;99.90;;;;;;5057355;28;20180;-82
2022/01/27 07:22:04;;;;;;;48.07;26.40;;;4.20;99.90;;;;;;5057958;28;20197;-83
2022/01/27 07:24:32;;;;;;;46.97;26.93;;;4.20;99.90;;;;;;5058149;28;20208;-83
2022/01/27 07:26:59;;;;;;;45.30;25.93;;;4.20;99.90;;;;;;5056606;28;20238;-83
2022/01/27 07:29:24;;;;;;;46.97;26.10;;;4.20;99.90;;;;;;5037986;28;20186;-84
2022/01/27 07:31:53;;;;;;;42.30;24.90;;;4.20;99.90;;;;;;5040929;28;20273;-84
2022/01/27 07:34:19;;;;;;;39.63;24.43;;;4.20;99.90;;;;;;5046116;28;20268;-85
2022/01/27 07:36:48;;;;;;;45.33;24.37;;;4.20;99.90;;;;;;5043098;28;20178;-86
2022/01/27 07:39:15;;;;;;;41.70;24.87;;;4.20;99.90;;;;;;5041391;28;20236;-85
2022/01/27 07:41:44;;;;;;;43.50;25.03;;;4.20;99.90;;;;;;5043759;28;20206;-84
2022/01/27 07:44:13;;;;;;;41.77;24.40;;;4.30;99.90;;;;;;5040643;28;20166;-85
2022/01/27 07:46:39;;;;;;;43.40;23.43;;;4.30;99.90;;;;;;5049955;28;20178;-84
2022/01/27 07:49:05;;;;;;;45.10;24.93;;;4.30;99.90;;;;;;5036815;28;20193;-81
2022/01/27 07:51:31;;;;;;;43.97;25.50;;;4.20;99.90;;;;;;5056315;28;20173;-85
2022/01/27 07:53:57;;;;;;;41.27;24.30;;;4.30;99.90;;;;;;5051305;28;20192;-84
2022/01/27 07:56:26;;;;;;;45.03;23.90;;;4.30;99.90;;;;;;5037483;28;20196;-85
2022/01/27 07:58:53;;;;;;;42.50;24.17;;;4.30;99.90;;;;;;5047977;28;20185;-84
2022/01/27 08:01:18;;;;;;;45.70;25.70;;;4.30;99.90;;;;;;5045908;28;20201;-84
2022/01/27 08:03:45;;;;;;;43.20;24.90;;;4.30;99.90;;;;;;5029369;28;20182;-83
2022/01/27 08:06:10;;;;;;;38.37;22.47;;;4.30;99.90;;;;;;5028803;28;20189;-84
2022/01/27 08:08:36;;;;;;;39.97;21.83;;;4.30;99.90;;;;;;5028363;28;20235;-85
2022/01/27 08:11:02;;;;;;;39.33;22.43;;;4.40;99.90;;;;;;5044379;28;20181;-87
2022/01/27 08:13:29;;;;;;;35.53;21.70;;;4.40;99.90;;;;;;5044083;28;20186;-86
2022/01/27 08:15:55;;;;;;;38.47;22.17;;;4.40;99.90;;;;;;5058628;28;20200;-87
2022/01/27 08:18:24;;;;;;;36.63;20.57;;;4.40;99.90;;;;;;5042263;28;20249;-83
2022/01/27 08:20:51;;;;;;;30.33;17.60;;;4.40;99.90;;;;;;5027669;28;20197;-84
2022/01/27 08:23:25;;;;;;;39.53;21.27;;;4.40;99.90;;;;;;5021155;28;20209;-87
2022/01/27 08:26:01;;;;;;;33.10;19.97;;;4.40;99.90;;;;;;5024663;28;20295;-85
2022/01/27 08:28:33;;;;;;;37.57;19.33;;;4.40;99.90;;;;;;5037784;28;20173;-85
2022/01/27 08:31:32;;;;;;;28.77;18.37;;;4.50;99.90;;;;;;5039909;28;20161;-87
2022/01/27 08:34:14;;;;;;;33.40;18.73;;;4.50;99.90;;;;;;5044292;28;20236;-86
2022/01/27 08:36:41;;;;;;;32.03;19.50;;;4.50;99.90;;;;;;5026212;28;20191;-86
2022/01/27 08:39:07;;;;;;;29.23;17.97;;;4.50;99.90;;;;;;5022047;28;20186;-85
2022/01/27 08:41:34;;;;;;;30.33;18.17;;;4.50;99.90;;;;;;5043724;28;20203;-85
2022/01/27 08:43:59;;;;;;;30.20;17.43;;;4.50;99.90;;;;;;5045322;28;20181;-84
2022/01/27 08:46:25;;;;;;;29.13;17.40;;;4.50;99.90;;;;;;5028933;28;20227;-84
2022/01/27 08:48:51;;;;;;;29.70;17.27;;;4.60;99.90;;;;;;5040327;28;20188;-84
2022/01/27 08:51:21;;;;;;;30.07;17.83;;;4.60;99.90;;;;;;5032355;28;20177;-86
2022/01/27 08:53:47;;;;;;;30.60;18.77;;;4.60;99.90;;;;;;5041990;28;20204;-84
2022/01/27 08:56:16;;;;;;;26.87;17.37;;;4.60;99.90;;;;;;5043881;28;20263;-85
2022/01/27 08:58:43;;;;;;;28.37;17.47;;;4.60;99.90;;;;;;5030634;28;20193;-85
2022/01/27 09:01:09;;;;;;;26.27;16.73;;;4.60;99.90;;;;;;5044824;28;20170;-85
2022/01/27 09:03:35;;;;;;;28.97;17.00;;;4.60;99.90;;;;;;5027448;28;20247;-85
2022/01/27 09:06:02;;;;;;;26.33;16.00;;;4.70;99.90;;;;;;5017883;28;20208;-83
2022/01/27 09:08:31;;;;;;;28.33;17.17;;;4.70;99.90;;;;;;5038102;28;20178;-84
2022/01/27 09:10:57;;;;;;;31.63;18.00;;;4.70;99.90;;;;;;5045806;28;20178;-85
2022/01/27 09:13:27;;;;;;;27.83;17.83;;;4.70;99.90;;;;;;5044189;28;20218;-85
2022/01/27 09:15:57;;;;;;;26.77;16.73;;;4.70;99.90;;;;;;5034622;28;20194;-84
2022/01/27 09:18:24;;;;;;;27.23;16.43;;;4.70;99.90;;;;;;5027223;28;20171;-85
2022/01/27 09:20:50;;;;;;;26.53;16.03;;;4.80;99.90;;;;;;5043184;28;20617;-85
2022/01/27 09:23:17;;;;;;;25.53;16.10;;;4.80;99.90;;;;;;5033572;28;20227;-84
2022/01/27 09:25:49;;;;;;;24.10;14.67;;;4.80;99.90;;;;;;5027328;28;20216;-83
2022/01/27 09:28:16;;;;;;;23.50;14.27;;;4.80;99.90;;;;;;5041357;28;20179;-85
2022/01/27 09:30:52;;;;;;;22.70;14.07;;;4.90;99.90;;;;;;5025220;28;20185;-84
2022/01/27 09:33:20;;;;;;;22.10;13.13;;;4.90;99.90;;;;;;5039438;28;20180;-84
2022/01/27 09:35:49;;;;;;;23.63;14.67;;;4.90;99.90;;;;;;5028660;28;20230;-84
2022/01/27 09:38:16;;;;;;;22.00;13.83;;;4.90;99.90;;;;;;5033919;28;20275;-84
2022/01/27 09:40:49;;;;;;;20.40;13.37;;;5.00;99.90;;;;;;5012399;28;20174;-84
2022/01/27 09:43:19;;;;;;;20.57;12.73;;;5.00;99.90;;;;;;5052896;28;20259;-85
2022/01/27 09:45:46;;;;;;;18.27;11.73;;;5.00;99.90;;;;;;5038907;28;20255;-84
2022/01/27 09:48:15;;;;;;;18.70;11.37;;;5.00;99.90;;;;;;5054978;28;20204;-83
2022/01/27 09:51:00;;;;;;;18.70;11.20;;;5.10;99.90;;;;;;5042184;28;20193;-83
2022/01/27 09:53:29;;;;;;;18.20;10.87;;;5.00;99.90;;;;;;5047604;28;20186;-83
2022/01/27 09:55:56;;;;;;;16.93;10.80;;;5.10;99.90;;;;;;5044505;28;20217;-83
2022/01/27 09:58:33;;;;;;;17.17;11.10;;;5.10;99.90;;;;;;5039171;28;20173;-83
2022/01/27 10:00:59;;;;;;;16.47;10.87;;;5.10;99.90;;;;;;5041335;28;20181;-77
2022/01/27 10:03:28;;;;;;;16.97;10.60;;;5.20;99.90;;;;;;5021845;28;20209;-83
2022/01/27 10:06:15;;;;;;;14.10;9.30;;;5.10;99.90;;;;;;5036274;28;20214;-84
2022/01/27 10:09:04;;;;;;;18.70;10.97;;;5.20;99.90;;;;;;5004716;28;20723;-85
2022/01/27 10:11:36;;;;;;;15.93;8.73;;;5.20;99.90;;;;;;5004825;28;20200;-83
2022/01/27 10:14:39;;;;;;;15.50;10.47;;;5.30;99.90;;;;;;5022173;28;20248;-84
2022/01/27 10:17:13;;;;;;;17.83;10.67;;;5.30;99.90;;;;;;4966425;28;20642;-82
2022/01/27 10:19:39;;;;;;;16.97;10.30;;;5.30;99.90;;;;;;5020112;28;20217;-84
2022/01/27 10:22:10;;;;;;;18.13;10.87;;;5.30;99.90;;;;;;5021514;28;20207;-84
2022/01/27 10:24:36;;;;;;;14.80;10.40;;;5.40;99.90;;;;;;5006333;28;20247;-82
2022/01/27 10:27:55;;;;;;;18.93;11.50;;;5.40;99.90;;;;;;5051198;28;20175;-84
2022/01/27 10:33:03;;;;;;;19.57;11.50;;;5.50;99.90;;;;;;5046521;28;20178;-84
2022/01/27 10:35:29;;;;;;;26.43;12.50;;;5.60;99.90;;;;;;5030023;28;20201;-83
2022/01/27 10:38:08;;;;;;;22.13;12.23;;;5.60;99.90;;;;;;5027400;28;20225;-83
2022/01/27 10:40:36;;;;;;;24.27;12.87;;;5.70;99.90;;;;;;5045910;28;20884;-83
2022/01/27 10:43:16;;;;;;;24.57;12.60;;;5.80;99.90;;;;;;5048446;28;20305;-84
2022/01/27 11:26:37;;;;;;;25.87;10.63;;;6.60;99.90;;;;;;5044638;28;20227;-83
2022/01/27 11:30:43;;;;;;;30.90;11.60;;;6.60;99.90;;;;;;5026784;28;20206;-84
2022/01/27 11:34:00;;;;;;;27.13;11.37;;;6.60;99.90;;;;;;4969434;28;20184;-82
2022/01/27 11:37:39;;;;;;;28.03;8.57;;;6.60;99.90;;;;;;5045571;28;20272;-82
2022/01/27 11:41:08;;;;;;;27.27;10.00;;;6.70;99.90;;;;;;5029034;28;20628;-82
2022/01/27 11:45:12;;;;;;;30.40;9.70;;;6.80;99.90;;;;;;5045454;28;20217;-83
2022/01/27 11:49:26;;;;;;;33.83;10.10;;;6.90;99.90;;;;;;5047220;28;20185;-83
2022/01/27 11:52:56;;;;;;;33.73;7.60;;;7.00;99.90;;;;;;4909187;29;20193;-84
2022/01/27 11:56:35;;;;;;;30.03;7.37;;;7.20;99.90;;;;;;4917328;29;20245;-82
2022/01/27 11:59:04;;;;;;;29.10;7.77;;;7.40;99.90;;;;;;4941272;28;20236;-84
2022/01/27 12:01:34;;;;;;;26.73;5.47;;;7.40;99.90;;;;;;4961723;28;20236;-83
2022/01/27 12:04:06;;;;;;;34.33;6.33;;;7.30;99.90;;;;;;5045421;28;20184;-84
2022/01/27 12:06:40;;;;;;;28.30;5.87;;;7.40;99.90;;;;;;5047329;28;20184;-84
2022/01/27 12:09:21;;;;;;;34.83;6.17;;;7.50;99.90;;;;;;5048518;28;20176;-83
2022/01/27 12:11:55;;;;;;;31.67;5.60;;;7.50;99.90;;;;;;5065540;28;20267;-84
2022/01/27 12:14:26;;;;;;;26.33;5.40;;;7.50;99.90;;;;;;5049937;28;20197;-84
2022/01/27 12:17:07;;;;;;;32.83;5.60;;;7.60;99.90;;;;;;5054820;28;20172;-84
2022/01/27 12:20:10;;;;;;;31.83;5.53;;;7.70;99.90;;;;;;5069931;28;20648;-83
2022/01/27 12:22:49;;;;;;;21.83;5.20;;;7.70;99.90;;;;;;5052813;28;20209;-83
2022/01/27 12:25:17;;;;;;;22.63;4.73;;;7.70;99.90;;;;;;5049884;28;20196;-83
2022/01/27 12:27:51;;;;;;;25.20;5.20;;;7.70;99.90;;;;;;5058293;28;20182;-83
2022/01/27 12:30:18;;;;;;;26.03;5.27;;;7.80;99.90;;;;;;5013991;28;20204;-82
2022/01/27 12:32:45;;;;;;;26.77;5.13;;;7.80;99.90;;;;;;5013130;28;20178;-83
2022/01/27 12:35:13;;;;;;;31.77;5.63;;;7.80;99.90;;;;;;5028571;28;20204;-84
2022/01/27 12:37:41;;;;;;;27.07;5.10;;;7.80;99.90;;;;;;5027999;28;20182;-84
2022/01/27 12:40:20;;;;;;;26.63;4.97;;;7.90;99.90;;;;;;5027617;28;20192;-84
2022/01/27 12:42:58;;;;;;;22.73;4.60;;;7.90;99.90;;;;;;5027702;28;20236;-84
2022/01/27 12:45:28;;;;;;;26.83;4.43;;;7.90;99.90;;;;;;5027693;28;20229;-83
2022/01/27 12:47:55;;;;;;;27.57;5.40;;;7.90;99.90;;;;;;5034828;28;20506;-82
2022/01/27 12:50:24;;;;;;;27.43;5.30;;;7.90;99.90;;;;;;5055971;28;20176;-85
2022/01/27 12:52:53;;;;;;;28.67;5.30;;;7.90;99.90;;;;;;5035214;28;20237;-88
2022/01/27 12:55:30;;;;;;;25.63;4.97;;;7.90;99.90;;;;;;5060757;28;20195;-86
2022/01/27 12:58:00;;;;;;;19.10;4.27;;;7.90;99.90;;;;;;5060638;28;20189;-84
2022/01/27 13:00:31;;;;;;;26.60;4.80;;;7.80;99.90;;;;;;5054273;28;20169;-84
2022/01/27 13:03:04;;;;;;;19.87;4.43;;;7.70;99.90;;;;;;5048036;28;20258;-85
2022/01/27 13:05:35;;;;;;;20.70;4.43;;;7.80;99.90;;;;;;5057891;28;20196;-84
2022/01/27 13:08:06;;;;;;;25.30;4.60;;;7.80;99.90;;;;;;5065022;28;20176;-83
2022/01/27 13:10:34;;;;;;;18.63;4.37;;;7.90;99.90;;;;;;5049646;28;20178;-83
2022/01/27 13:13:36;;;;;;;21.90;4.30;;;8.00;99.90;;;;;;5069919;28;20180;-85
2022/01/27 13:16:09;;;;;;;21.47;4.43;;;8.10;99.90;;;;;;5052423;28;20199;-84
2022/01/27 13:18:58;;;;;;;29.53;4.23;;;8.20;99.90;;;;;;5066869;28;20185;-84
2022/01/27 13:21:32;;;;;;;22.40;3.67;;;8.20;99.90;;;;;;5047875;28;20181;-87
2022/01/27 13:24:09;;;;;;;22.67;4.80;;;8.20;99.90;;;;;;5046226;28;20185;-84
2022/01/27 13:26:44;;;;;;;26.03;4.63;;;8.10;99.90;;;;;;5045859;28;20173;-86
2022/01/27 13:29:14;;;;;;;14.43;3.27;;;8.00;99.90;;;;;;5026854;28;20166;-87
2022/01/27 13:31:41;;;;;;;16.50;4.03;;;7.90;99.90;;;;;;5010616;28;20225;-84
2022/01/27 13:34:06;;;;;;;19.23;4.10;;;7.90;99.90;;;;;;5009469;28;20178;-79
2022/01/27 13:36:36;;;;;;;20.47;4.43;;;7.90;99.90;;;;;;5015259;28;20193;-85
2022/01/27 13:41:38;;;;;;;22.47;4.00;;;8.00;99.90;;;;;;5029230;28;20229;-84
2022/01/27 13:44:08;;;;;;;21.50;4.30;;;8.10;99.90;;;;;;5013176;28;20178;-85
2022/01/27 13:46:48;;;;;;;23.23;4.93;;;8.10;99.90;;;;;;5014807;28;20178;-85
2022/01/27 13:49:22;;;;;;;22.17;4.97;;;8.10;99.90;;;;;;5013217;28;20178;-84
2022/01/27 13:51:47;;;;;;;23.40;3.70;;;8.00;99.90;;;;;;5014196;28;20185;-84
2022/01/27 13:54:20;;;;;;;24.13;4.63;;;7.90;99.90;;;;;;5031857;28;20193;-84
2022/01/27 13:56:50;;;;;;;25.60;4.97;;;7.90;99.90;;;;;;5029661;28;20240;-85
2022/01/27 13:59:19;;;;;;;25.47;3.90;;;7.90;99.90;;;;;;5065972;28;20233;-86
2022/01/27 14:01:47;;;;;;;22.87;4.30;;;7.90;99.90;;;;;;5047760;28;20204;-86
2022/01/27 14:04:15;;;;;;;18.37;3.90;;;7.90;99.90;;;;;;5065060;28;20177;-85
2022/01/27 14:06:56;;;;;;;22.13;4.63;;;7.90;99.90;;;;;;5028793;28;20190;-83
2022/01/27 14:09:30;;;;;;;27.33;4.57;;;7.90;99.90;;;;;;5026412;28;20181;-85
2022/01/27 14:12:05;;;;;;;22.83;4.07;;;7.90;99.90;;;;;;5041780;28;20170;-83
2022/01/27 14:14:49;;;;;;;16.70;3.67;;;7.80;99.90;;;;;;5043167;28;20280;-82
2022/01/27 14:17:41;;;;;;;16.37;3.43;;;7.90;99.90;;;;;;5035735;28;20613;-76
2022/01/27 14:20:22;;;;;;;16.83;3.80;;;7.90;99.90;;;;;;5033292;28;20287;-85
2022/01/27 14:23:14;;;;;;;18.67;3.60;;;7.90;99.90;;;;;;5042344;28;20276;-87
2022/01/27 14:26:06;;;;;;;16.83;3.80;;;8.00;99.90;;;;;;5038638;28;20211;-83
2022/01/27 14:28:29;;;;;;;12.23;2.87;;;7.90;99.90;;;;;;5023578;28;20272;-81
2022/01/27 14:31:04;;;;;;;21.90;4.07;;;7.90;99.90;;;;;;5005776;28;20177;-84